createdAt,value
2022-12-16T00:01:50.207Z,97.15
2022-12-16T00:07:14.233Z,97.43
2022-12-16T00:12:36.512Z,97.86
2022-12-16T00:17:59.249Z,98.28
2022-12-16T00:23:21.860Z,98.68
2022-12-16T00:28:47.368Z,99.38
2022-12-16T00:34:10.523Z,99.48
2022-12-16T00:39:32.895Z,99.96
2022-12-16T00:44:55.105Z,100.00
2022-12-16T00:50:17.667Z,100.00
2022-12-16T00:55:39.890Z,100.00
2022-12-16T01:01:03.860Z,100.00
2022-12-16T01:06:28.979Z,100.00
2022-12-16T01:11:51.346Z,100.00
2022-12-16T01:17:14.280Z,100.00
2022-12-16T01:22:38.198Z,100.00
2022-12-16T01:28:00.400Z,100.00
2022-12-16T01:33:23.355Z,100.00
2022-12-16T01:38:48.015Z,100.00
2022-12-16T01:44:29.976Z,100.00
2022-12-16T01:50:18.051Z,100.00
2022-12-16T01:55:55.623Z,100.00
2022-12-16T02:01:19.204Z,100.00
2022-12-16T02:06:42.646Z,100.00
2022-12-16T02:12:18.247Z,100.00
2022-12-16T02:17:53.783Z,100.00
2022-12-16T02:23:41.637Z,100.00
2022-12-16T02:29:43.225Z,100.00
2022-12-16T02:35:31.115Z,100.00
2022-12-16T02:41:17.092Z,100.00
2022-12-16T02:46:46.419Z,100.00
2022-12-16T02:52:10.477Z,100.00
2022-12-16T02:57:56.579Z,100.00
2022-12-16T03:03:29.854Z,100.00
2022-12-16T03:08:57.926Z,100.00
2022-12-16T03:14:23.329Z,100.00
2022-12-16T03:19:48.530Z,100.00
2022-12-16T03:25:12.545Z,100.00
2022-12-16T03:30:40.363Z,100.00
2022-12-16T03:36:06.785Z,100.00
2022-12-16T03:41:30.586Z,100.00
2022-12-16T03:46:53.436Z,100.00
2022-12-16T03:52:15.970Z,100.00
2022-12-16T03:57:38.625Z,100.00
2022-12-16T04:03:01.501Z,100.00
2022-12-16T04:08:24.083Z,100.00
2022-12-16T04:14:04.395Z,100.00
2022-12-16T04:19:49.451Z,100.00
2022-12-16T04:25:24.961Z,100.00
2022-12-16T04:30:48.386Z,100.00
2022-12-16T04:36:19.066Z,100.00
2022-12-16T04:42:29.455Z,100.00
2022-12-16T04:48:09.410Z,100.00
2022-12-16T04:53:50.024Z,100.00
2022-12-16T04:59:30.491Z,100.00
2022-12-16T05:05:10.571Z,100.00
2022-12-16T05:10:51.154Z,100.00
2022-12-16T05:16:31.883Z,100.00
2022-12-16T05:22:11.914Z,100.00
2022-12-16T05:27:52.148Z,100.00
2022-12-16T05:33:32.367Z,100.00
2022-12-16T05:39:12.485Z,100.00
2022-12-16T05:44:52.655Z,100.00
2022-12-16T05:50:33.099Z,100.00
2022-12-16T05:56:14.314Z,100.00
2022-12-16T06:01:54.397Z,100.00
2022-12-16T06:07:34.803Z,100.00
2022-12-16T06:13:17.100Z,100.00
2022-12-16T06:18:56.880Z,100.00
2022-12-16T06:24:37.799Z,100.00
2022-12-16T06:30:18.008Z,100.00
2022-12-16T06:35:57.930Z,100.00
2022-12-16T06:41:38.183Z,100.00
2022-12-16T06:47:18.664Z,100.00
2022-12-16T06:52:58.542Z,100.00
2022-12-16T06:58:38.752Z,100.00
2022-12-16T07:04:18.955Z,100.00
2022-12-16T07:09:58.872Z,100.00
2022-12-16T07:15:39.003Z,100.00
2022-12-16T07:21:18.859Z,100.00
2022-12-16T07:26:59.212Z,100.00
2022-12-16T07:32:39.954Z,100.00
2022-12-16T07:38:20.783Z,100.00
2022-12-16T07:44:00.740Z,100.00
2022-12-16T07:55:25.588Z,100.00
2022-12-16T08:01:09.881Z,100.00
2022-12-16T08:06:53.238Z,100.00
2022-12-16T08:12:35.669Z,100.00
2022-12-16T08:18:21.731Z,100.00
2022-12-16T08:24:01.997Z,100.00
2022-12-16T08:29:45.393Z,100.00
2022-12-16T08:35:25.723Z,100.00
2022-12-16T08:41:08.051Z,100.00
2022-12-16T08:46:49.625Z,100.00
2022-12-16T08:52:30.434Z,100.00
2022-12-16T08:58:18.518Z,100.00
2022-12-16T09:04:01.492Z,100.00
2022-12-16T09:09:42.053Z,100.00
2022-12-16T09:15:24.603Z,100.00
2022-12-16T09:21:07.706Z,100.00
2022-12-16T09:26:50.586Z,100.00
2022-12-16T09:32:31.008Z,100.00
2022-12-16T09:38:14.285Z,100.00
2022-12-16T09:44:20.681Z,100.00
2022-12-16T09:50:15.778Z,100.00
2022-12-16T09:56:06.976Z,100.00
2022-12-16T10:01:51.869Z,100.00
2022-12-16T10:07:44.010Z,100.00
2022-12-16T10:13:39.574Z,100.00
2022-12-16T10:19:46.747Z,100.00
2022-12-16T10:25:38.531Z,100.00
2022-12-16T10:31:26.744Z,100.00
2022-12-16T10:37:12.301Z,100.00
2022-12-16T10:42:59.754Z,100.00
2022-12-16T10:48:50.235Z,100.00
2022-12-16T10:54:48.856Z,100.00
2022-12-16T11:00:41.454Z,99.58
2022-12-16T11:06:24.968Z,99.34
2022-12-16T11:12:09.123Z,99.03
2022-12-16T11:18:03.466Z,98.65
2022-12-16T11:24:02.755Z,98.62
2022-12-16T11:29:46.588Z,98.90
2022-12-16T11:35:30.579Z,98.89
2022-12-16T11:41:10.746Z,98.85
2022-12-16T11:46:58.327Z,98.95
2022-12-16T11:52:45.297Z,99.16
2022-12-16T11:58:50.248Z,99.30
2022-12-16T12:04:29.408Z,99.54
2022-12-16T12:10:37.304Z,100.00
2022-12-16T12:16:22.530Z,99.95
2022-12-16T12:22:11.741Z,100.00
2022-12-16T12:27:59.193Z,100.00
2022-12-16T12:34:03.479Z,100.00
2022-12-16T12:39:51.536Z,100.00
2022-12-16T12:45:54.794Z,100.00
2022-12-16T12:51:58.426Z,100.00
2022-12-16T12:57:43.617Z,100.00
2022-12-16T13:03:44.249Z,100.00
2022-12-16T13:15:14.484Z,100.00
2022-12-16T13:21:12.248Z,100.00
2022-12-16T13:26:58.806Z,100.00
2022-12-16T13:32:54.523Z,100.00
2022-12-16T13:38:51.686Z,100.00
2022-12-16T13:44:38.046Z,100.00
2022-12-16T13:50:32.065Z,100.00
2022-12-16T13:56:25.249Z,100.00
2022-12-16T14:02:29.457Z,100.00
2022-12-16T14:08:14.143Z,100.00
2022-12-16T14:20:41.036Z,100.00
2022-12-16T14:26:24.221Z,100.00
2022-12-16T14:32:08.870Z,100.00
2022-12-16T14:38:00.029Z,100.00
2022-12-16T14:43:50.180Z,100.00
2022-12-16T14:49:34.404Z,100.00
2022-12-16T14:55:18.425Z,100.00
2022-12-16T15:01:02.391Z,100.00
2022-12-16T15:06:55.121Z,100.00
2022-12-16T15:12:37.689Z,100.00
2022-12-16T15:18:28.974Z,100.00
2022-12-16T15:24:13.665Z,100.00
2022-12-16T15:30:06.625Z,100.00
2022-12-16T15:36:05.932Z,100.00
2022-12-16T15:42:09.473Z,100.00
2022-12-16T15:48:04.400Z,100.00
2022-12-16T15:54:05.555Z,100.00
2022-12-16T16:00:03.960Z,100.00
2022-12-16T16:05:50.156Z,100.00
2022-12-16T16:11:30.300Z,100.00
2022-12-16T16:17:10.115Z,100.00
2022-12-16T16:22:52.290Z,100.00
2022-12-16T16:28:32.945Z,100.00
2022-12-16T16:34:12.992Z,100.00
2022-12-16T16:39:52.798Z,100.00
2022-12-16T16:45:35.019Z,100.00
2022-12-16T16:51:15.059Z,100.00
2022-12-16T16:56:55.919Z,100.00
2022-12-16T17:02:41.451Z,100.00
2022-12-16T17:08:21.115Z,100.00
2022-12-16T17:14:00.915Z,100.00
2022-12-16T17:19:40.830Z,100.00
2022-12-16T17:25:21.015Z,100.00
2022-12-16T17:31:01.323Z,100.00
2022-12-16T17:36:42.472Z,100.00
2022-12-16T17:42:22.470Z,100.00
2022-12-16T17:48:02.758Z,100.00
2022-12-16T17:53:43.005Z,100.00
2022-12-16T17:59:23.283Z,100.00
2022-12-16T18:05:03.207Z,100.00
2022-12-16T18:10:43.797Z,100.00
2022-12-16T18:16:30.152Z,100.00
2022-12-16T18:22:10.382Z,100.00
2022-12-16T18:27:50.398Z,100.00
2022-12-16T18:33:30.720Z,100.00
2022-12-16T18:39:10.778Z,100.00
2022-12-16T18:44:53.816Z,100.00
2022-12-16T18:50:37.781Z,100.00
2022-12-16T18:56:26.246Z,100.00
2022-12-16T19:02:06.280Z,100.00
2022-12-16T19:07:47.962Z,100.00
2022-12-16T19:13:30.351Z,100.00
2022-12-16T19:19:12.752Z,100.00
2022-12-16T19:24:52.145Z,100.00
2022-12-16T19:30:32.943Z,100.00
2022-12-16T19:36:13.043Z,100.00
2022-12-16T19:41:56.195Z,100.00
2022-12-16T19:47:35.578Z,100.00
2022-12-16T19:53:15.605Z,100.00
2022-12-16T19:58:56.915Z,100.00
2022-12-16T20:04:37.112Z,100.00
2022-12-16T20:10:07.045Z,100.00
2022-12-16T20:15:57.110Z,100.00
2022-12-16T20:21:38.853Z,100.00
2022-12-16T20:27:18.749Z,100.00
2022-12-16T20:32:58.934Z,100.00
2022-12-16T20:38:39.216Z,100.00
2022-12-16T20:44:22.242Z,100.00
2022-12-16T20:50:03.301Z,100.00
2022-12-16T20:55:43.595Z,100.00
2022-12-16T21:01:25.849Z,100.00
2022-12-16T21:07:06.297Z,100.00
2022-12-16T21:12:46.325Z,100.00
2022-12-16T21:18:27.855Z,100.00
2022-12-16T21:24:08.046Z,100.00
2022-12-16T21:29:49.105Z,100.00
2022-12-16T21:35:29.229Z,100.00
2022-12-16T21:41:11.158Z,100.00
2022-12-16T21:46:51.845Z,100.00
2022-12-16T21:52:31.733Z,100.00
2022-12-16T21:58:13.376Z,100.00
2022-12-16T22:03:59.498Z,100.00
2022-12-16T22:09:39.726Z,100.00
2022-12-16T22:15:20.049Z,100.00
2022-12-16T22:20:59.866Z,100.00
2022-12-16T22:26:40.703Z,100.00
2022-12-16T22:32:21.196Z,100.00
2022-12-16T22:38:01.688Z,100.00
2022-12-16T22:43:42.003Z,100.00
2022-12-16T22:49:25.188Z,100.00
2022-12-16T22:55:05.081Z,100.00
2022-12-16T23:00:46.986Z,100.00
2022-12-16T23:06:27.005Z,100.00
2022-12-16T23:12:12.364Z,100.00
2022-12-16T23:17:52.236Z,100.00
2022-12-16T23:23:32.938Z,100.00
2022-12-16T23:29:15.247Z,100.00
2022-12-16T23:34:54.937Z,100.00
2022-12-16T23:40:36.036Z,100.00
2022-12-16T23:46:15.989Z,100.00
2022-12-16T23:51:55.987Z,100.00
2022-12-16T23:57:37.573Z,100.00
